Time;durP1;ratioP1;P1;durP2;ratioP2;P2;SDS_P1;SDS_P2;PMS_P1;PMS_P2;Temp;Humidity;BMP_temperature;BMP_pressure;BME280_temperature;BME280_humidity;BME280_pressure;Samples;Min_cycle;Max_cycle;Signal;HPM_P1;HPM_P2
2023/10/12 00:01:11;;;;;;;12.20;5.20;;;;;;;;;;5067590;28;20645;-53
2023/10/12 00:03:38;;;;;;;12.83;6.20;;;;;;;;;;5067166;28;21008;-52
2023/10/12 00:06:06;;;;;;;8.83;7.03;;;;;;;;;;5067244;28;20218;-52
2023/10/12 00:08:32;;;;;;;7.47;6.00;;;;;;;;;;5065926;28;20214;-52
2023/10/12 00:11:06;;;;;;;11.20;7.03;;;;;;;;;;5067102;28;20741;-54
2023/10/12 00:13:33;;;;;;;7.50;5.37;;;;;;;;;;5066016;28;20255;-54
2023/10/12 00:15:59;;;;;;;7.90;4.63;;;;;;;;;;5067581;28;20720;-53
2023/10/12 00:18:25;;;;;;;9.87;5.27;;;;;;;;;;5066480;28;20179;-53
2023/10/12 00:20:54;;;;;;;7.97;5.13;;;;;;;;;;5067448;28;20495;-53
2023/10/12 00:23:20;;;;;;;10.27;6.07;;;;;;;;;;5058737;28;20609;-53
2023/10/12 00:25:54;;;;;;;8.47;5.47;;;;;;;;;;5066942;28;20835;-52
2023/10/12 00:28:23;;;;;;;8.87;5.30;;;;;;;;;;5066935;28;20177;-52
2023/10/12 00:30:54;;;;;;;8.63;5.37;;;;;;;;;;5067374;28;20181;-54
2023/10/12 00:33:21;;;;;;;9.13;6.00;;;;;;;;;;5066443;28;20247;-53
2023/10/12 00:35:51;;;;;;;12.93;4.83;;;;;;;;;;5067175;28;20548;-52
2023/10/12 00:38:18;;;;;;;11.90;4.93;;;;;;;;;;5061022;28;20655;-52
2023/10/12 00:41:14;;;;;;;8.07;5.00;;;;;;;;;;5066501;28;20533;-53
2023/10/12 00:44:18;;;;;;;5.73;4.50;;;;;;;;;;5063479;28;20277;-53
2023/10/12 00:46:42;;;;;;;6.77;5.07;;;;;;;;;;5064162;28;20193;-52
2023/10/12 00:49:22;;;;;;;10.97;5.23;;;;;;;;;;5066500;28;20623;-52
2023/10/12 00:51:51;;;;;;;8.93;4.90;;;;;;;;;;5058850;28;20189;-53
2023/10/12 00:57:05;;;;;;;7.30;4.37;;;;;;;;;;5066107;28;20799;-52
2023/10/12 00:59:32;;;;;;;7.60;6.40;;;;;;;;;;5065800;28;20650;-52
2023/10/12 01:02:02;;;;;;;7.70;5.40;;;;;;;;;;5062032;28;20169;-52
2023/10/12 01:04:30;;;;;;;10.67;5.97;;;;;;;;;;5062828;28;20300;-53
2023/10/12 01:06:59;;;;;;;8.63;5.93;;;;;;;;;;5061990;28;20226;-52
2023/10/12 01:09:39;;;;;;;8.97;5.20;;;;;;;;;;5061250;28;20747;-53
2023/10/12 01:12:12;;;;;;;6.10;5.10;;;;;;;;;;5064710;28;20181;-52
2023/10/12 01:14:42;;;;;;;7.07;5.43;;;;;;;;;;5059797;28;20198;-52
2023/10/12 01:17:08;;;;;;;8.30;4.90;;;;;;;;;;5065661;28;20198;-53
2023/10/12 01:19:44;;;;;;;8.50;4.80;;;;;;;;;;5066615;28;20189;-53
2023/10/12 01:22:13;;;;;;;6.87;4.43;;;;;;;;;;5063267;28;20181;-52
2023/10/12 01:25:19;;;;;;;7.37;4.93;;;;;;;;;;5060352;28;20189;-52
2023/10/12 01:27:30;;;;;;;8.07;5.27;;;;;;;;;;5062447;28;20279;-51
2023/10/12 01:30:13;;;;;;;8.70;4.80;;;;;;;;;;5059852;28;20236;-51
2023/10/12 01:32:39;;;;;;;9.83;5.30;;;;;;;;;;5065308;28;20252;-53
2023/10/12 01:35:06;;;;;;;6.90;5.20;;;;;;;;;;5061536;28;20596;-52
2023/10/12 01:37:47;;;;;;;8.37;5.40;;;;;;;;;;5060319;28;20177;-52
2023/10/12 01:40:15;;;;;;;7.13;5.17;;;;;;;;;;5056882;28;20178;-53
2023/10/12 01:42:50;;;;;;;6.87;5.53;;;;;;;;;;5064371;28;20635;-55
2023/10/12 01:48:05;;;;;;;11.50;5.60;;;;;;;;;;5064476;28;20208;-52
2023/10/12 01:50:33;;;;;;;8.63;5.17;;;;;;;;;;5060507;28;20520;-53
2023/10/12 01:53:00;;;;;;;6.00;4.97;;;;;;;;;;5059905;28;20248;-53
2023/10/12 01:55:30;;;;;;;6.90;4.83;;;;;;;;;;5060155;28;20178;-52
2023/10/12 01:57:59;;;;;;;9.93;4.93;;;;;;;;;;5064467;28;20249;-53
2023/10/12 02:00:28;;;;;;;10.63;6.00;;;;;;;;;;5066260;28;20795;-53
2023/10/12 02:03:02;;;;;;;8.90;5.77;;;;;;;;;;5067751;28;20590;-53
2023/10/12 02:05:36;;;;;;;8.93;5.30;;;;;;;;;;5066934;28;20255;-53
2023/10/12 02:08:05;;;;;;;5.77;5.13;;;;;;;;;;5064660;28;20200;-52
2023/10/12 02:10:41;;;;;;;10.60;6.67;;;;;;;;;;5068645;28;20168;-52
2023/10/12 02:13:07;;;;;;;9.00;5.27;;;;;;;;;;5056829;28;20215;-54
2023/10/12 02:15:33;;;;;;;7.93;5.53;;;;;;;;;;5068861;28;20636;-54
2023/10/12 02:18:00;;;;;;;6.47;5.30;;;;;;;;;;5067623;28;20484;-54
2023/10/12 02:20:33;;;;;;;7.07;4.53;;;;;;;;;;5063523;28;20211;-54
2023/10/12 02:23:02;;;;;;;6.07;5.23;;;;;;;;;;5065632;28;20657;-55
2023/10/12 02:25:28;;;;;;;8.60;5.20;;;;;;;;;;5063213;28;20587;-55
2023/10/12 02:27:55;;;;;;;6.47;4.50;;;;;;;;;;5067318;28;20266;-55
2023/10/12 02:30:27;;;;;;;6.80;5.70;;;;;;;;;;5084075;28;20235;-55
2023/10/12 02:33:00;;;;;;;7.73;5.20;;;;;;;;;;5072000;28;20207;-55
2023/10/12 02:35:36;;;;;;;5.57;5.07;;;;;;;;;;5069100;28;20184;-56
2023/10/12 02:38:04;;;;;;;9.23;5.80;;;;;;;;;;5065019;28;20176;-56
2023/10/12 02:40:32;;;;;;;6.97;5.27;;;;;;;;;;5068441;28;20206;-56
2023/10/12 02:42:59;;;;;;;9.20;5.73;;;;;;;;;;5062125;28;20215;-55
2023/10/12 02:45:28;;;;;;;8.57;7.27;;;;;;;;;;5062419;28;20192;-54
2023/10/12 02:47:54;;;;;;;9.03;7.67;;;;;;;;;;5069071;28;20204;-55
2023/10/12 02:50:57;;;;;;;9.37;6.83;;;;;;;;;;5068821;28;20258;-55
2023/10/12 02:53:10;;;;;;;10.67;6.97;;;;;;;;;;5066730;28;20579;-55
2023/10/12 02:55:46;;;;;;;10.93;6.90;;;;;;;;;;5068444;28;20277;-56
2023/10/12 02:58:19;;;;;;;9.90;7.67;;;;;;;;;;5066418;28;20710;-55
2023/10/12 03:00:47;;;;;;;8.33;7.00;;;;;;;;;;5069705;28;20422;-55
2023/10/12 03:05:52;;;;;;;13.17;7.97;;;;;;;;;;5059038;28;20185;-55
2023/10/12 03:08:20;;;;;;;11.23;7.80;;;;;;;;;;5061989;28;20186;-55
2023/10/12 03:13:57;;;;;;;9.60;6.90;;;;;;;;;;5059985;28;20296;-55
2023/10/12 03:16:24;;;;;;;12.33;7.03;;;;;;;;;;5067801;28;20709;-56
2023/10/12 03:21:38;;;;;;;9.43;6.70;;;;;;;;;;5066830;28;20575;-55
2023/10/12 03:24:05;;;;;;;7.70;6.67;;;;;;;;;;5064311;28;20189;-55
2023/10/12 03:26:33;;;;;;;9.57;8.00;;;;;;;;;;5063905;28;20277;-56
2023/10/12 03:29:43;;;;;;;7.23;6.50;;;;;;;;;;5066902;28;20230;-56
2023/10/12 03:31:53;;;;;;;11.07;10.07;;;;;;;;;;5052641;28;20197;-55
2023/10/12 03:37:03;;;;;;;9.57;7.00;;;;;;;;;;5066199;28;20200;-55
2023/10/12 03:39:31;;;;;;;7.53;6.83;;;;;;;;;;5066326;28;20247;-56
2023/10/12 03:47:05;;;;;;;7.93;6.57;;;;;;;;;;5064975;28;20175;-56
2023/10/12 03:49:43;;;;;;;8.23;5.87;;;;;;;;;;5066848;28;20204;-56
2023/10/12 03:52:15;;;;;;;8.97;6.43;;;;;;;;;;5062728;28;20188;-56
2023/10/12 03:57:36;;;;;;;7.60;5.90;;;;;;;;;;5066822;28;20199;-56
2023/10/12 04:02:42;;;;;;;7.97;5.67;;;;;;;;;;5067490;28;20181;-56
2023/10/12 04:05:34;;;;;;;7.20;6.60;;;;;;;;;;5066308;28;20279;-56
2023/10/12 04:08:00;;;;;;;8.53;6.03;;;;;;;;;;5063690;28;20176;-56
2023/10/12 04:19:03;;;;;;;8.40;6.13;;;;;;;;;;5062375;28;20235;-56
2023/10/12 04:21:40;;;;;;;9.10;6.50;;;;;;;;;;5066887;28;20176;-56
2023/10/12 04:27:00;;;;;;;8.17;6.70;;;;;;;;;;5063378;28;20235;-56
2023/10/12 04:29:30;;;;;;;7.73;6.57;;;;;;;;;;5066843;28;20220;-56
2023/10/12 04:32:09;;;;;;;9.63;8.07;;;;;;;;;;5066099;28;20658;-56
2023/10/12 04:34:46;;;;;;;8.23;6.17;;;;;;;;;;5056413;28;20188;-56
2023/10/12 04:37:18;;;;;;;7.00;6.33;;;;;;;;;;5058871;28;20207;-56
2023/10/12 04:39:49;;;;;;;8.60;6.57;;;;;;;;;;5064573;28;20181;-56
2023/10/12 04:42:23;;;;;;;8.40;6.43;;;;;;;;;;5063095;28;20233;-56
2023/10/12 04:45:02;;;;;;;9.47;7.00;;;;;;;;;;5061755;28;20190;-56
2023/10/12 04:47:30;;;;;;;8.17;6.80;;;;;;;;;;5063491;28;20641;-56
2023/10/12 04:49:57;;;;;;;7.83;7.00;;;;;;;;;;5067255;28;20180;-56
2023/10/12 04:53:06;;;;;;;7.93;7.03;;;;;;;;;;5063539;28;20765;-56
2023/10/12 04:57:42;;;;;;;8.40;6.63;;;;;;;;;;5063983;28;20220;-56
2023/10/12 05:07:55;;;;;;;8.57;5.90;;;;;;;;;;5060953;28;20667;-55
2023/10/12 05:10:31;;;;;;;8.83;6.50;;;;;;;;;;5065830;28;20271;-55
2023/10/12 05:13:04;;;;;;;8.97;6.73;;;;;;;;;;5058279;28;20227;-55
2023/10/12 05:15:42;;;;;;;9.50;7.47;;;;;;;;;;5065474;28;20541;-55
2023/10/12 05:18:09;;;;;;;9.07;7.37;;;;;;;;;;5065736;28;20180;-56
2023/10/12 05:20:35;;;;;;;12.57;7.83;;;;;;;;;;5066069;28;20573;-56
2023/10/12 05:23:04;;;;;;;8.37;7.10;;;;;;;;;;5063634;28;20628;-55
2023/10/12 05:28:27;;;;;;;10.67;7.30;;;;;;;;;;5061053;28;20249;-56
2023/10/12 05:30:59;;;;;;;8.43;6.80;;;;;;;;;;5058996;28;20184;-55
2023/10/12 05:36:04;;;;;;;11.80;7.60;;;;;;;;;;5066190;28;20181;-55
2023/10/12 05:38:37;;;;;;;8.47;6.87;;;;;;;;;;5065346;28;20189;-55
2023/10/12 05:41:10;;;;;;;9.57;6.93;;;;;;;;;;5066017;28;20251;-55
2023/10/12 05:43:38;;;;;;;10.27;6.70;;;;;;;;;;5070601;28;20181;-55
2023/10/12 05:46:10;;;;;;;11.50;7.33;;;;;;;;;;5065127;28;20288;-55
2023/10/12 05:48:45;;;;;;;9.50;6.70;;;;;;;;;;5068425;28;20279;-55
2023/10/12 05:51:18;;;;;;;10.07;7.60;;;;;;;;;;5069238;28;20593;-55
2023/10/12 05:53:44;;;;;;;8.83;6.93;;;;;;;;;;5067745;28;20506;-55
2023/10/12 05:56:11;;;;;;;10.67;7.00;;;;;;;;;;5082913;28;20544;-55
2023/10/12 05:58:40;;;;;;;11.43;7.77;;;;;;;;;;5065959;28;20200;-55
2023/10/12 06:01:15;;;;;;;12.03;7.33;;;;;;;;;;5064131;28;20226;-55
2023/10/12 06:03:46;;;;;;;7.67;6.73;;;;;;;;;;5069442;28;20187;-55
2023/10/12 06:06:16;;;;;;;9.60;7.20;;;;;;;;;;5067613;28;20216;-55
2023/10/12 06:08:42;;;;;;;9.63;6.97;;;;;;;;;;5064769;28;20195;-55
2023/10/12 06:11:09;;;;;;;8.90;7.37;;;;;;;;;;5066728;28;20193;-55
2023/10/12 06:13:42;;;;;;;8.53;7.57;;;;;;;;;;5063660;28;20211;-55
2023/10/12 06:16:15;;;;;;;8.00;7.20;;;;;;;;;;5063545;28;20196;-55
2023/10/12 06:18:44;;;;;;;9.40;6.83;;;;;;;;;;5065800;28;20285;-55
2023/10/12 06:21:17;;;;;;;8.13;6.53;;;;;;;;;;5068359;28;20218;-55
2023/10/12 06:23:50;;;;;;;10.07;6.87;;;;;;;;;;5057208;28;20815;-55
2023/10/12 06:26:29;;;;;;;8.63;7.17;;;;;;;;;;5061872;28;20589;-55
2023/10/12 06:28:56;;;;;;;10.27;7.03;;;;;;;;;;5067525;28;20636;-56
2023/10/12 06:31:22;;;;;;;11.37;7.53;;;;;;;;;;5066008;28;20191;-55
2023/10/12 06:33:49;;;;;;;9.57;7.23;;;;;;;;;;5062539;28;20326;-55
2023/10/12 06:36:22;;;;;;;10.83;7.13;;;;;;;;;;5062947;28;20178;-55
2023/10/12 06:46:46;;;;;;;9.20;6.17;;;;;;;;;;5062900;28;20194;-59
2023/10/12 06:49:18;;;;;;;10.67;6.67;;;;;;;;;;5061569;28;20278;-55
2023/10/12 06:51:54;;;;;;;9.73;6.50;;;;;;;;;;5062041;28;20203;-55
2023/10/12 07:02:27;;;;;;;11.40;7.68;;;;;;;;;;5064047;28;20437;-57
2023/10/12 07:04:57;;;;;;;12.43;7.53;;;;;;;;;;5068246;28;20510;-57
2023/10/12 07:07:27;;;;;;;10.73;8.00;;;;;;;;;;5065060;28;20187;-57
2023/10/12 07:12:37;;;;;;;10.27;6.50;;;;;;;;;;5062332;28;20446;-57
2023/10/12 07:15:11;;;;;;;8.77;6.27;;;;;;;;;;5062789;28;20176;-57
2023/10/12 07:17:37;;;;;;;8.83;7.13;;;;;;;;;;5064475;28;20241;-57
2023/10/12 07:20:25;;;;;;;9.90;5.47;;;;;;;;;;5065743;28;20276;-57
2023/10/12 07:22:51;;;;;;;6.80;6.10;;;;;;;;;;5064036;28;20260;-57
2023/10/12 07:25:23;;;;;;;7.63;5.23;;;;;;;;;;5067500;28;20176;-57
2023/10/12 07:27:51;;;;;;;11.20;6.70;;;;;;;;;;5061627;28;20178;-57
2023/10/12 07:32:55;;;;;;;7.37;5.37;;;;;;;;;;5064210;28;20213;-57
2023/10/12 07:35:39;;;;;;;8.13;5.57;;;;;;;;;;5064399;28;20186;-57
2023/10/12 07:38:13;;;;;;;6.50;5.60;;;;;;;;;;5062810;28;20613;-57
2023/10/12 07:40:56;;;;;;;10.20;5.47;;;;;;;;;;5055997;28;20242;-57
2023/10/12 07:43:24;;;;;;;8.83;5.57;;;;;;;;;;5064145;28;20204;-57
2023/10/12 07:45:54;;;;;;;6.00;4.93;;;;;;;;;;5066049;28;20249;-57
2023/10/12 07:48:31;;;;;;;6.97;5.50;;;;;;;;;;5065110;28;20247;-57
2023/10/12 07:53:44;;;;;;;7.27;5.10;;;;;;;;;;5064463;28;20215;-57
2023/10/12 07:56:15;;;;;;;6.00;4.90;;;;;;;;;;5066539;28;20193;-57
2023/10/12 07:58:43;;;;;;;6.07;5.47;;;;;;;;;;5062982;28;20207;-56
2023/10/12 08:03:58;;;;;;;11.93;7.20;;;;;;;;;;5065258;28;20186;-56
2023/10/12 08:09:47;;;;;;;10.27;6.80;;;;;;;;;;5063800;28;20198;-57
2023/10/12 08:11:49;;;;;;;9.27;5.80;;;;;;;;;;5057119;28;20302;-57
2023/10/12 08:19:42;;;;;;;8.90;5.93;;;;;;;;;;5065873;28;20206;-58
2023/10/12 08:22:25;;;;;;;6.83;5.07;;;;;;;;;;5061821;28;20188;-57
2023/10/12 08:24:53;;;;;;;6.63;5.70;;;;;;;;;;5062917;28;20195;-57
2023/10/12 08:27:19;;;;;;;10.27;6.17;;;;;;;;;;5065816;28;20469;-57
2023/10/12 08:32:15;;;;;;;7.30;5.57;;;;;;;;;;5063149;28;20182;-57
2023/10/12 08:35:10;;;;;;;8.07;5.60;;;;;;;;;;5060675;28;20268;-57
2023/10/12 08:37:35;;;;;;;7.73;5.63;;;;;;;;;;5064444;28;20874;-57
2023/10/12 08:40:17;;;;;;;7.57;5.23;;;;;;;;;;5061651;28;20642;-57
2023/10/12 08:43:06;;;;;;;6.87;5.50;;;;;;;;;;5065823;28;20183;-57
2023/10/12 08:45:33;;;;;;;6.63;5.17;;;;;;;;;;5063149;28;20597;-57
2023/10/12 08:48:03;;;;;;;9.27;5.87;;;;;;;;;;5064478;28;20208;-57
2023/10/12 08:50:49;;;;;;;7.80;5.57;;;;;;;;;;5066439;28;20206;-57
2023/10/12 08:53:20;;;;;;;6.63;5.87;;;;;;;;;;5063849;28;20204;-57
2023/10/12 08:55:48;;;;;;;8.57;5.57;;;;;;;;;;5060774;28;20264;-57
2023/10/12 08:58:20;;;;;;;6.93;5.60;;;;;;;;;;5059576;28;20192;-57
2023/10/12 09:03:28;;;;;;;6.70;5.97;;;;;;;;;;5063707;28;20632;-57
2023/10/12 09:05:54;;;;;;;10.33;6.00;;;;;;;;;;5065178;28;20583;-57
2023/10/12 09:13:17;;;;;;;10.10;5.97;;;;;;;;;;5068533;28;20215;-57
2023/10/12 09:15:48;;;;;;;6.17;5.57;;;;;;;;;;5069230;28;20180;-57
2023/10/12 09:18:16;;;;;;;6.93;5.60;;;;;;;;;;5065122;28;20199;-57
2023/10/12 09:21:02;;;;;;;6.30;5.57;;;;;;;;;;5066194;28;20181;-57
2023/10/12 09:23:31;;;;;;;7.97;5.53;;;;;;;;;;5066773;28;20204;-58
2023/10/12 09:28:42;;;;;;;6.60;5.87;;;;;;;;;;5066967;28;20188;-57
2023/10/12 09:31:13;;;;;;;6.17;5.57;;;;;;;;;;5069855;28;20202;-57
2023/10/12 09:33:54;;;;;;;6.70;6.00;;;;;;;;;;5068792;28;20228;-57
2023/10/12 09:36:22;;;;;;;6.30;5.70;;;;;;;;;;5066624;28;20589;-57
2023/10/12 09:38:48;;;;;;;6.23;5.10;;;;;;;;;;5062561;28;20184;-57
2023/10/12 09:41:16;;;;;;;7.67;5.20;;;;;;;;;;5066845;28;20180;-57
2023/10/12 09:43:45;;;;;;;6.73;6.03;;;;;;;;;;5066218;28;20184;-57
2023/10/12 09:46:17;;;;;;;10.07;6.63;;;;;;;;;;5065107;28;20192;-57
2023/10/12 09:48:44;;;;;;;8.00;5.57;;;;;;;;;;5064940;28;20187;-57
2023/10/12 09:51:15;;;;;;;6.83;6.17;;;;;;;;;;5066573;28;20220;-56
2023/10/12 09:53:44;;;;;;;8.13;6.37;;;;;;;;;;5064978;28;20292;-57
2023/10/12 09:56:15;;;;;;;6.83;5.53;;;;;;;;;;5083762;28;20185;-56
2023/10/12 09:58:52;;;;;;;7.57;6.20;;;;;;;;;;5065330;28;20192;-56
2023/10/12 10:06:52;;;;;;;8.23;5.83;;;;;;;;;;5062193;28;20203;-57
2023/10/12 10:11:59;;;;;;;6.07;5.47;;;;;;;;;;5066908;28;20704;-57
2023/10/12 10:14:33;;;;;;;10.50;5.43;;;;;;;;;;5066526;28;20200;-56
2023/10/12 10:17:01;;;;;;;8.93;5.50;;;;;;;;;;5065679;28;20184;-57
2023/10/12 10:19:30;;;;;;;7.90;5.73;;;;;;;;;;5069168;28;20223;-58
2023/10/12 10:24:57;;;;;;;6.47;5.57;;;;;;;;;;5053534;28;20208;-57
2023/10/12 10:27:34;;;;;;;6.80;5.90;;;;;;;;;;5066861;28;20184;-57
2023/10/12 10:30:27;;;;;;;8.43;5.97;;;;;;;;;;5066000;28;20247;-56
2023/10/12 10:33:22;;;;;;;6.50;5.70;;;;;;;;;;5066229;28;20539;-56
2023/10/12 10:35:57;;;;;;;7.00;4.73;;;;;;;;;;5057226;28;20177;-56
2023/10/12 10:38:30;;;;;;;6.53;4.83;;;;;;;;;;5065039;28;20188;-56
2023/10/12 10:41:05;;;;;;;5.73;4.67;;;;;;;;;;5062140;28;20295;-57
2023/10/12 10:43:38;;;;;;;6.50;5.13;;;;;;;;;;5067644;28;20549;-57
2023/10/12 10:46:10;;;;;;;7.10;5.40;;;;;;;;;;5066448;28;20185;-56
2023/10/12 10:48:39;;;;;;;7.70;5.63;;;;;;;;;;5067620;28;20539;-56
2023/10/12 10:51:18;;;;;;;9.37;5.43;;;;;;;;;;5061654;28;20580;-56
2023/10/12 10:53:51;;;;;;;24.93;12.70;;;;;;;;;;5066838;28;20709;-56
2023/10/12 10:56:32;;;;;;;8.60;7.27;;;;;;;;;;5065778;28;20222;-56
2023/10/12 10:59:01;;;;;;;10.63;6.33;;;;;;;;;;5067383;28;20215;-56
2023/10/12 11:01:27;;;;;;;8.90;6.27;;;;;;;;;;5056267;28;20183;-56
2023/10/12 11:04:01;;;;;;;6.87;5.63;;;;;;;;;;5067341;28;20193;-56
2023/10/12 11:06:31;;;;;;;7.77;4.57;;;;;;;;;;5060798;28;20176;-56
2023/10/12 11:09:13;;;;;;;9.27;5.73;;;;;;;;;;5063028;28;20211;-56
2023/10/12 11:11:48;;;;;;;9.93;6.00;;;;;;;;;;5067580;28;20565;-56
2023/10/12 11:14:18;;;;;;;7.77;5.57;;;;;;;;;;5066757;28;20204;-57
2023/10/12 11:16:48;;;;;;;6.87;5.53;;;;;;;;;;5066231;28;20540;-56
2023/10/12 11:19:17;;;;;;;8.00;5.73;;;;;;;;;;5066943;28;20185;-54
2023/10/12 11:21:51;;;;;;;7.53;5.77;;;;;;;;;;5066394;28;20541;-55
2023/10/12 11:24:18;;;;;;;9.43;7.77;;;;;;;;;;5063562;28;20180;-53
2023/10/12 11:26:52;;;;;;;12.97;6.77;;;;;;;;;;5066713;28;20238;-55
2023/10/12 11:29:19;;;;;;;10.17;6.90;;;;;;;;;;5066602;28;20694;-55
2023/10/12 11:32:10;;;;;;;10.57;7.50;;;;;;;;;;5059833;28;20192;-55
2023/10/12 11:34:44;;;;;;;13.00;8.73;;;;;;;;;;5065423;28;20217;-55
2023/10/12 11:37:13;;;;;;;12.90;7.80;;;;;;;;;;5064418;28;20652;-54
2023/10/12 11:39:43;;;;;;;12.93;7.27;;;;;;;;;;5064255;28;20192;-54
2023/10/12 11:42:12;;;;;;;14.47;7.17;;;;;;;;;;5057613;28;20177;-54
2023/10/12 11:44:42;;;;;;;9.50;6.47;;;;;;;;;;5065650;28;20181;-54
2023/10/12 11:47:10;;;;;;;13.33;7.77;;;;;;;;;;5065280;28;20185;-54
2023/10/12 11:49:55;;;;;;;9.93;7.87;;;;;;;;;;5064867;28;20203;-54
2023/10/12 11:52:29;;;;;;;9.87;7.70;;;;;;;;;;5064223;28;20223;-53
2023/10/12 11:55:03;;;;;;;10.80;8.20;;;;;;;;;;5064068;28;20183;-54
2023/10/12 11:57:29;;;;;;;9.87;7.60;;;;;;;;;;5060959;28;20215;-53
2023/10/12 11:59:58;;;;;;;13.33;7.40;;;;;;;;;;5059730;28;20177;-54
2023/10/12 12:02:26;;;;;;;11.60;8.30;;;;;;;;;;5064890;28;20307;-54
2023/10/12 12:04:52;;;;;;;11.33;7.50;;;;;;;;;;5067383;28;20187;-53
2023/10/12 12:07:20;;;;;;;10.57;7.37;;;;;;;;;;5065960;28;20259;-54
2023/10/12 12:09:48;;;;;;;12.40;7.67;;;;;;;;;;5062831;28;20197;-53
2023/10/12 12:12:18;;;;;;;12.10;7.67;;;;;;;;;;5065832;28;20627;-53
2023/10/12 12:14:47;;;;;;;11.40;7.77;;;;;;;;;;5065224;28;20525;-54
2023/10/12 12:17:17;;;;;;;10.77;7.47;;;;;;;;;;5066365;28;20627;-53
2023/10/12 12:19:43;;;;;;;10.83;7.40;;;;;;;;;;5066838;28;20164;-55
2023/10/12 12:22:16;;;;;;;9.63;7.97;;;;;;;;;;5066225;28;20601;-54
2023/10/12 12:24:48;;;;;;;8.77;7.10;;;;;;;;;;5065337;28;20640;-54
2023/10/12 12:30:00;;;;;;;14.37;8.10;;;;;;;;;;5065872;28;21070;-54
2023/10/12 12:32:29;;;;;;;9.80;7.33;;;;;;;;;;5066999;28;20715;-53
2023/10/12 12:34:55;;;;;;;9.07;7.03;;;;;;;;;;5062615;28;20221;-54
2023/10/12 12:37:22;;;;;;;13.10;7.03;;;;;;;;;;5065275;28;20276;-55
2023/10/12 12:40:38;;;;;;;9.63;6.93;;;;;;;;;;5066616;28;20260;-55
2023/10/12 12:42:41;;;;;;;7.83;7.03;;;;;;;;;;5056653;28;20224;-54
2023/10/12 12:45:08;;;;;;;8.57;7.00;;;;;;;;;;5061854;28;20234;-54
2023/10/12 12:47:34;;;;;;;12.80;7.63;;;;;;;;;;5058792;28;20190;-54
2023/10/12 12:50:03;;;;;;;9.57;7.63;;;;;;;;;;5061277;28;20214;-54
2023/10/12 12:52:30;;;;;;;8.73;6.77;;;;;;;;;;5062425;28;21027;-54
2023/10/12 12:54:56;;;;;;;10.20;6.80;;;;;;;;;;5062103;28;20192;-54
2023/10/12 12:57:23;;;;;;;8.23;6.90;;;;;;;;;;5066434;28;20194;-54
2023/10/12 12:59:49;;;;;;;8.10;6.70;;;;;;;;;;5067154;28;20169;-54
2023/10/12 13:02:16;;;;;;;11.03;7.57;;;;;;;;;;5064441;28;20655;-54
2023/10/12 13:04:42;;;;;;;8.83;6.37;;;;;;;;;;5062594;28;20173;-56
2023/10/12 13:07:08;;;;;;;8.03;5.73;;;;;;;;;;5065569;28;20180;-54
2023/10/12 13:09:36;;;;;;;10.43;6.80;;;;;;;;;;5061491;28;20263;-56
2023/10/12 13:12:06;;;;;;;9.63;6.23;;;;;;;;;;5063583;28;20199;-56
2023/10/12 13:14:32;;;;;;;10.83;6.27;;;;;;;;;;5060929;28;20675;-56
2023/10/12 13:16:59;;;;;;;8.60;5.43;;;;;;;;;;5064540;28;20442;-57
2023/10/12 13:19:25;;;;;;;9.03;6.70;;;;;;;;;;5064969;28;20194;-57
2023/10/12 13:21:52;;;;;;;9.00;6.27;;;;;;;;;;5059256;28;20215;-58
2023/10/12 13:24:18;;;;;;;;;;;;;;;;;;5057764;28;20093;-58
2023/10/12 13:26:44;;;;;;;;;;;;;;;;;;5065275;28;19983;-56
2023/10/12 13:29:10;;;;;;;;;;;;;;;;;;5064715;28;19920;-56
2023/10/12 13:31:36;;;;;;;;;;;;;;;;;;5064973;28;20006;-57
2023/10/12 13:34:05;;;;;;;;;;;;;;;;;;5063312;28;19916;-57
2023/10/12 13:36:31;;;;;;;;;;;;;;;;;;5064218;28;20291;-57
2023/10/12 13:38:57;;;;;;;;;;;;;;;;;;5061904;28;19947;-58
2023/10/12 13:41:24;;;;;;;;;;;;;;;;;;5062821;28;19955;-57
2023/10/12 13:43:50;;;;;;;;;;;;;;;;;;5062647;28;19963;-57
2023/10/12 13:46:16;;;;;;;;;;;;;;;;;;5062204;28;20014;-57
2023/10/12 13:48:42;;;;;;;;;;;;;;;;;;5063738;28;19909;-57
2023/10/12 13:51:12;;;;;;;;;;;;;;;;;;5063897;28;20379;-57
2023/10/12 13:53:38;;;;;;;;;;;;;;;;;;5061897;28;19912;-57
2023/10/12 13:56:04;;;;;;;;;;;;;;;;;;5066208;28;20135;-58
2023/10/12 13:58:33;;;;;;;;;;;;;;;;;;5068346;28;19955;-57
2023/10/12 14:01:02;;;;;;;;;;;;;;;;;;5063529;28;19941;-57
2023/10/12 14:03:38;;;;;;;;;;;;;;;;;;5064795;28;20331;-60
2023/10/12 14:06:07;;;;;;;;;;;;;;;;;;5065366;28;19912;-57
2023/10/12 14:08:35;;;;;;;;;;;;;;;;;;5067828;28;19950;-58
2023/10/12 14:11:04;;;;;;;;;;;;;;;;;;5069387;28;19908;-57
2023/10/12 14:13:30;;;;;;;;;;;;;;;;;;5066936;28;19916;-57
2023/10/12 14:15:56;;;;;;;;;;;;;;;;;;5067335;28;19912;-60
2023/10/12 14:18:23;;;;;;;;;;;;;;;;;;5066539;28;19913;-57
2023/10/12 14:20:51;;;;;;;;;;;;;;;;;;5066805;28;19988;-57
2023/10/12 14:23:17;;;;;;;;;;;;;;;;;;5066174;28;19920;-58
2023/10/12 14:25:43;;;;;;;;;;;;;;;;;;5065866;28;19951;-56
2023/10/12 14:28:09;;;;;;;;;;;;;;;;;;5067856;28;19919;-55
2023/10/12 14:30:36;;;;;;;;;;;;;;;;;;5068107;28;19989;-55
2023/10/12 14:33:06;;;;;;;;;;;;;;;;;;5066933;28;20320;-57
2023/10/12 14:35:35;;;;;;;;;;;;;;;;;;5055991;28;20265;-56
2023/10/12 14:38:02;;;;;;;;;;;;;;;;;;5064699;28;20355;-56
2023/10/12 14:40:32;;;;;;;;;;;;;;;;;;5063372;28;19909;-56
2023/10/12 14:42:58;;;;;;;;;;;;;;;;;;5066543;28;20017;-56
2023/10/12 14:45:25;;;;;;;;;;;;;;;;;;5067776;28;20095;-57
2023/10/12 14:47:51;;;;;;;;;;;;;;;;;;5064456;28;20379;-56
2023/10/12 14:50:17;;;;;;;;;;;;;;;;;;5067763;28;19916;-58
2023/10/12 14:52:43;;;;;;;;;;;;;;;;;;5066770;28;19913;-56
2023/10/12 14:55:10;;;;;;;;;;;;;;;;;;5068092;28;20249;-56
2023/10/12 14:57:38;;;;;;;;;;;;;;;;;;5069876;28;20430;-56
2023/10/12 15:00:08;;;;;;;;;;;;;;;;;;5069615;28;19908;-54
2023/10/12 15:02:35;;;;;;;;;;;;;;;;;;5065550;28;19909;-54
2023/10/12 15:05:01;;;;;;;;;;;;;;;;;;5070410;28;19995;-53
2023/10/12 15:07:27;;;;;;;;;;;;;;;;;;5068343;28;19919;-56
2023/10/12 15:09:53;;;;;;;;;;;;;;;;;;5068545;28;19951;-56
2023/10/12 15:12:19;;;;;;;;;;;;;;;;;;5069014;28;19916;-55
2023/10/12 15:14:47;;;;;;;;;;;;;;;;;;5069492;28;19912;-54
2023/10/12 15:17:15;;;;;;;;;;;;;;;;;;5068312;28;20371;-55
2023/10/12 15:19:43;;;;;;;;;;;;;;;;;;5066897;28;20010;-54
2023/10/12 15:22:09;;;;;;;;;;;;;;;;;;5065973;28;19908;-54
2023/10/12 15:24:40;;;;;;;;;;;;;;;;;;5068644;28;19936;-55
2023/10/12 15:27:06;;;;;;;;;;;;;;;;;;5062044;28;20275;-55
2023/10/12 15:29:32;;;;;;;;;;;;;;;;;;5068282;28;19951;-54
2023/10/12 15:31:58;;;;;;;;;;;;;;;;;;5064420;28;19955;-55
2023/10/12 15:34:24;;;;;;;;;;;;;;;;;;5066150;28;19952;-54
2023/10/12 15:36:50;;;;;;;;;;;;;;;;;;5065621;28;20299;-54
2023/10/12 15:39:16;;;;;;;;;;;;;;;;;;5065835;28;19909;-54
2023/10/12 15:41:42;;;;;;;;;;;;;;;;;;5062865;28;19919;-55
2023/10/12 15:44:08;;;;;;;;;;;;;;;;;;5065805;28;20400;-55
2023/10/12 15:46:34;;;;;;;;;;;;;;;;;;5066743;28;20035;-54
2023/10/12 15:49:02;;;;;;;;;;;;;;;;;;5062107;28;19936;-54
2023/10/12 15:51:31;;;;;;;;;;;;;;;;;;5064789;28;20364;-54
2023/10/12 15:53:58;;;;;;;;;;;;;;;;;;5064100;28;19916;-54
2023/10/12 15:56:25;;;;;;;;;;;;;;;;;;5060533;28;19994;-57
2023/10/12 15:58:52;;;;;;;;;;;;;;;;;;5067637;28;19912;-56
2023/10/12 16:01:18;;;;;;;;;;;;;;;;;;5060238;28;19912;-56
2023/10/12 16:03:44;;;;;;;;;;;;;;;;;;5063283;28;20233;-56
2023/10/12 16:06:11;;;;;;;;;;;;;;;;;;5060322;28;19918;-57
2023/10/12 16:08:37;;;;;;;;;;;;;;;;;;5065728;28;19916;-57
2023/10/12 16:11:03;;;;;;;;;;;;;;;;;;5065432;28;20021;-56
2023/10/12 16:13:29;;;;;;;;;;;;;;;;;;5063973;28;19912;-56
2023/10/12 16:15:55;;;;;;;;;;;;;;;;;;5065554;28;19967;-57
2023/10/12 16:18:21;;;;;;;;;;;;;;;;;;5066778;28;19912;-57
2023/10/12 16:20:48;;;;;;;;;;;;;;;;;;5067287;28;19920;-57
2023/10/12 16:23:14;;;;;;;;;;;;;;;;;;5064346;28;19916;-57
2023/10/12 16:25:41;;;;;;;;;;;;;;;;;;5063546;28;20388;-57
2023/10/12 16:28:08;;;;;;;;;;;;;;;;;;5062102;28;19916;-57
2023/10/12 16:30:37;;;;;;;;;;;;;;;;;;5063813;28;19970;-57
2023/10/12 16:33:05;;;;;;;;;;;;;;;;;;5063484;28;19946;-56
2023/10/12 16:35:31;;;;;;;;;;;;;;;;;;5063454;28;20431;-57
2023/10/12 16:37:59;;;;;;;;;;;;;;;;;;5064785;28;19954;-56
2023/10/12 16:40:31;;;;;;;;;;;;;;;;;;5062546;28;19909;-56
2023/10/12 16:42:57;;;;;;;;;;;;;;;;;;5064400;28;19919;-57
2023/10/12 16:45:23;;;;;;;;;;;;;;;;;;5066087;28;20008;-57
2023/10/12 16:47:49;;;;;;;;;;;;;;;;;;5060481;28;19959;-56
2023/10/12 16:50:18;;;;;;;;;;;;;;;;;;5063274;28;20256;-56
2023/10/12 16:52:44;;;;;;;;;;;;;;;;;;5064112;28;20007;-57
2023/10/12 16:55:11;;;;;;;;;;;;;;;;;;5064458;28;19923;-57
2023/10/12 16:57:37;;;;;;;;;;;;;;;;;;5066643;28;19908;-57
2023/10/12 17:00:07;;;;;;;;;;;;;;;;;;5066910;28;19954;-57
2023/10/12 17:02:34;;;;;;;;;;;;;;;;;;5065927;28;19913;-56
2023/10/12 17:05:00;;;;;;;;;;;;;;;;;;5062539;28;20275;-57
2023/10/12 17:07:26;;;;;;;;;;;;;;;;;;5060437;28;20618;-56
2023/10/12 17:09:52;;;;;;;;;;;;;;;;;;5057119;28;19908;-57
2023/10/12 17:12:19;;;;;;;;;;;;;;;;;;5066218;28;19916;-57
2023/10/12 17:14:45;;;;;;;;;;;;;;;;;;5064778;28;19913;-57
2023/10/12 17:17:11;;;;;;;;;;;;;;;;;;5064355;28;19962;-57
2023/10/12 17:19:37;;;;;;;;;;;;;;;;;;5061274;28;19939;-57
2023/10/12 17:22:04;;;;;;;;;;;;;;;;;;5060602;28;19909;-57
2023/10/12 17:24:30;;;;;;;;;;;;;;;;;;5064042;28;19957;-56